• Join FlightAware (Why Join?)
  • Login
  • US Flag 
02:02PM EDT


 

Airport Tracker/Info


-or-


 

Live Flight TrackerFlight Track Log ✈ LYM752 ✈ 11-Oct-2013 ✈ KDEN - KGJT

Flight Track Log - Related Links

Times and Time Zones

All times are in EDT time to prevent confusion due to time zone crossing. See the LYM752 flight status page for this flight to view local times or setup timezone preferences in your user account.

Time Position Orientation Groundspeed Altitude Reporting Facility
EDT Latitude Longitude Course Direction KTS MPH feet Rate Location/Type
07:25AM 39.8667 -104.7000 270° West 107 123 7,000  Level Denver TRACON
07:26AM 39.8667 -104.7333 270° West 114 131 7,700 780 Climbing Denver TRACON
07:27AM 39.8500 -104.7667 237° Southwest 101 116 8,600 900 Climbing Denver TRACON
07:28AM 39.8500 -104.8000 270° West 107 123 9,500 840 Climbing Denver TRACON
07:30AM 39.8297 -104.8481 241° Southwest 102 117 10,600 660 Climbing Denver Center
07:31AM 39.8211 -104.8847 253° West 105 121 11,100 540 Climbing Denver Center
07:32AM 39.8106 -104.9258 252° West 117 135 11,700 660 Climbing Denver Center
07:33AM 39.7997 -104.9658 251° West 118 136 12,500 660 Climbing Denver Center
07:34AM 39.7875 -105.0053 248° West 118 136 13,100 540 Climbing Denver Center
07:35AM 39.7769 -105.0544 254° West 129 148 13,600 540 Climbing Denver Center
07:36AM 39.7694 -105.1008 258° West 131 151 14,200 600 Climbing Denver Center
07:37AM 39.7619 -105.1464 258° West 129 148 14,900 600 Climbing Denver Center
07:38AM 39.7550 -105.1983 260° West 144 166 15,500 540 Climbing Denver Center
07:39AM 39.7472 -105.2489 259° West 143 165 16,000 480 Climbing Denver Center
07:40AM 39.7397 -105.2981 259° West 139 160 16,500 360 Climbing Denver Center
07:41AM 39.7317 -105.3461 258° West 136 157 16,800 300 Climbing Denver Center
07:42AM 39.7253 -105.3947 260° West 136 157 17,100 180 Climbing Denver Center
07:43AM 39.7169 -105.4425 257° West 138 159 17,200  Climbing Denver Center
07:44AM 39.7128 -105.4975 264° West 152 175 17,200  Level Denver Center
07:45AM 39.7078 -105.5581 264° West 168 193 17,300 -60 Climbing Denver Center
07:46AM 39.7025 -105.6231 264° West 179 206 17,100 -60 Descending Denver Center
07:47AM 39.6908 -105.6886 257° West 183 211 17,200  Climbing Denver Center
07:48AM 39.6781 -105.7506 255° West 179 206 17,100 -60 Descending Denver Center
07:49AM 39.6669 -105.8097 256° West 170 196 17,100  Level Denver Center
07:50AM 39.6589 -105.8567 257° West 161 185 17,200  Climbing Denver Center
07:51AM 39.6508 -105.9119 259° West 157 181 17,100  Descending Denver Center
07:52AM 39.6386 -105.9717 255° West 165 190 17,200  Climbing Denver Center
07:53AM 39.6250 -106.0403 256° West 165 190 17,200  Level Denver Center
07:54AM 39.6081 -106.0983 249° West 169 194 17,200 -60 Level Denver Center
07:55AM 39.5939 -106.1506 251° West 181 208 17,100 120 Descending Denver Center
07:56AM 39.5783 -106.2128 252° West 182 209 17,500 -60 Climbing Denver Center
07:57AM 39.5675 -106.2706 256° West 169 194 17,000 -240 Descending Denver Center
07:58AM 39.5583 -106.3319 259° West 172 198 17,100  Climbing Denver Center
07:59AM 39.5494 -106.3889 259° West 164 189 17,100  Level Denver Center
08:00AM 39.5400 -106.4472 258° West 164 189 17,100  Level Denver Center
08:01AM 39.5272 -106.5128 256° West 170 196 17,100  Level Denver Center
08:02AM 39.5119 -106.5778 253° West 170 196 17,100  Level Denver Center
08:03AM 39.4975 -106.6344 252° West 172 198 17,100 -60 Level Denver Center
08:04AM 39.4844 -106.6914 253° West 172 198 17,000  Descending Denver Center
08:05AM 39.4708 -106.7469 252° West 170 196 17,100  Climbing Denver Center
08:06AM 39.4564 -106.8119 254° West 169 194 17,100  Level Denver Center
08:07AM 39.4447 -106.8656 254° West 163 188 17,100  Level Denver Center
08:08AM 39.4319 -106.9211 253° West 166 191 17,100  Level Denver Center
08:09AM 39.4194 -106.9869 256° West 169 194 17,100  Level Denver Center
08:10AM 39.4092 -107.0381 255° West 171 197 17,100  Level Denver Center
08:11AM 39.3992 -107.0958 257° West 165 190 17,100  Level Denver Center
08:12AM 39.3886 -107.1544 257° West 168 193 17,100  Level Denver Center
08:13AM 39.3769 -107.2194 257° West 164 189 17,100  Level Denver Center
08:14AM 39.3678 -107.2750 258° West 165 190 17,100  Level Denver Center
08:15AM 39.3586 -107.3331 258° West 171 197 17,100  Level Denver Center
08:16AM 39.3464 -107.4014 257° West 174 200 17,100  Level Denver Center
08:17AM 39.3367 -107.4586 258° West 171 197 17,100 -180 Level Denver Center
08:18AM 39.3272 -107.5164 258° West 171 197 16,800 -600 Descending Denver Center
08:19AM 39.3119 -107.5936 256° West 194 223 15,900 -900 Descending Denver Center
08:20AM 39.2992 -107.6625 257° West 202 232 15,000 -420 Descending Denver Center
08:21AM 39.2869 -107.7272 256° West 198 228 15,100  Climbing Denver Center
08:22AM 39.2728 -107.7967 255° West 182 209 15,100  Level Denver Center
08:23AM 39.2594 -107.8539 253° West 176 203 15,100  Level Denver Center
08:24AM 39.2464 -107.9142 254° West 171 197 15,100  Level Denver Center
08:25AM 39.2328 -107.9717 253° West 171 197 15,100  Level Denver Center
08:26AM 39.2208 -108.0328 256° West 176 203 15,100 -480 Level Denver Center
08:27AM 39.2083 -108.1014 257° West 185 213 14,200 -1,020 Descending Denver Center
08:28AM 39.1931 -108.1753 255° West 211 243 13,100 -1,140 Descending Denver Center
08:29AM 39.1789 -108.2458 255° West 204 235 12,000 -1,140 Descending Denver Center
08:30AM 39.1667 -108.3164 257° West 203 234 10,800 -1,200 Descending Denver Center
08:31AM 39.1556 -108.3853 258° West 209 241 9,600 -900 Descending Denver Center
08:32AM 39.1658 -108.4489 282° West 172 198 9,100 -360 Descending Denver Center
08:33AM 39.1928 -108.4956 307° West 165 190 8,900 -60 Descending Denver Center
08:34AM 39.2178 -108.5433 304° West 161 185 9,000  Climbing Denver Center
08:35AM 39.2378 -108.5856 301° West 141 162 9,000  Level Denver Center
08:36AM 39.2600 -108.6319 302° West 151 174 9,000 -120 Level Denver Center
08:37AM 39.2603 -108.6850 270° West 169 194 8,800 -360 Descending Denver Center
08:38AM 39.2136 -108.6803 176° South 193 222 8,300 -960 Descending Denver Center
08:39AM 39.1817 -108.6311 130° Southeast 180 207 6,900 -1,320 Descending Denver Center
08:40AM 39.1553 -108.5822 125° Southeast 170 196 5,700 -1,020 Descending Denver Center
08:41AM 39.1333 -108.5431 126° Southeast 142 163 4,900 -480 Descending Denver Center
08:42AM 39.1219 -108.5264 131° Southeast 120 138 4,800 -60 Descending Denver Center
08:43AM 39.1203 -108.5289 229° Southwest 73 84 4,800  Level Denver Center